Marvin, South Dakota
Current Conditions -  °F | °C
As of 12:34 PM on Sunday 21 Dec 2014 (Local Time) from KVVV Reporting Station
Haze Haze  
Wind Chill: 25°   Ceiling: 600
Heat Index: 34°   Visibility: 4mi
Dew Point: 28°   Wind: 12mph
Humidity: 81%   Direction: 160°SSE
Pressure: 29.65"   Gusts: NA
Location:  45.26°N, 96.91°W
Report Text: KVVV 211834Z AUTO 16010KT 4SM BR OVC006 01/M02 A2965 RMK AO2
Loading
Personal Weather Stations






























Interactive Weather Map New forecast layout! Learn more

10-Day Weather Forecast

Advertisements
Track Severe Weather on mobile